createdAt,value
2019-02-04T00:00:35.052Z,99.90
2019-02-04T00:03:16.292Z,99.90
2019-02-04T00:05:45.632Z,99.90
2019-02-04T00:08:15.061Z,99.90
2019-02-04T00:10:44.741Z,99.90
2019-02-04T00:13:14.541Z,99.90
2019-02-04T00:15:43.872Z,99.90
2019-02-04T00:18:12.931Z,99.90
2019-02-04T00:20:41.834Z,99.90
2019-02-04T00:23:10.699Z,99.90
2019-02-04T00:25:39.845Z,99.90
2019-02-04T00:28:08.781Z,99.90
2019-02-04T00:30:37.659Z,99.90
2019-02-04T00:33:06.642Z,99.90
2019-02-04T00:35:35.645Z,99.90
2019-02-04T00:38:04.629Z,99.90
2019-02-04T00:40:33.767Z,99.90
2019-02-04T00:43:02.618Z,99.90
2019-02-04T00:45:31.584Z,99.90
2019-02-04T00:48:00.417Z,99.90
2019-02-04T00:50:33.134Z,99.90
2019-02-04T00:53:02.311Z,99.90
2019-02-04T00:55:31.642Z,99.90
2019-02-04T00:58:01.033Z,99.90
2019-02-04T01:00:31.342Z,99.90
2019-02-04T01:03:00.721Z,99.90
2019-02-04T01:05:29.807Z,99.90
2019-02-04T01:07:59.105Z,99.90
2019-02-04T01:10:31.628Z,99.90
2019-02-04T01:13:00.695Z,99.90
2019-02-04T01:15:29.655Z,99.90
2019-02-04T01:17:58.531Z,99.90
2019-02-04T01:20:31.537Z,99.90
2019-02-04T01:23:00.469Z,99.90
2019-02-04T01:25:29.550Z,99.90
2019-02-04T01:27:58.495Z,99.90
2019-02-04T01:30:27.434Z,99.90
2019-02-04T01:32:56.362Z,99.90
2019-02-04T01:35:25.708Z,99.90
2019-02-04T01:37:59.306Z,99.90
2019-02-04T01:40:38.723Z,99.90
2019-02-04T01:43:29.058Z,99.90
2019-02-04T01:45:57.999Z,99.90
2019-02-04T01:48:26.895Z,99.90
2019-02-04T01:50:55.799Z,99.90
2019-02-04T01:53:24.765Z,99.90
2019-02-04T01:55:53.740Z,99.90
2019-02-04T01:58:22.915Z,99.90
2019-02-04T02:00:51.861Z,99.90
2019-02-04T02:03:20.735Z,99.90
2019-02-04T02:05:49.630Z,99.90
2019-02-04T02:08:18.491Z,99.90
2019-02-04T02:10:47.459Z,99.90
2019-02-04T02:13:16.525Z,99.90
2019-02-04T02:15:45.463Z,99.90
2019-02-04T02:18:14.438Z,99.90
2019-02-04T02:20:43.364Z,99.90
2019-02-04T02:23:12.250Z,99.90
2019-02-04T02:25:41.157Z,99.90
2019-02-04T02:28:10.022Z,99.90
2019-02-04T02:30:48.512Z,99.90
2019-02-04T02:33:17.586Z,99.90
2019-02-04T02:35:46.489Z,99.90
2019-02-04T02:38:15.390Z,99.90
2019-02-04T02:40:44.509Z,99.90
2019-02-04T02:43:13.405Z,99.90
2019-02-04T02:45:42.261Z,99.90
2019-02-04T02:48:11.311Z,99.90
2019-02-04T02:50:40.187Z,99.90
2019-02-04T02:53:09.138Z,99.90
2019-02-04T02:55:38.383Z,99.90
2019-02-04T02:58:07.281Z,99.90
2019-02-04T03:00:36.151Z,99.90
2019-02-04T03:03:05.145Z,99.90
2019-02-04T03:05:34.100Z,99.90
2019-02-04T03:08:02.931Z,99.90
2019-02-04T03:10:32.167Z,99.90
2019-02-04T03:13:01.124Z,99.90
2019-02-04T03:15:30.069Z,99.90
2019-02-04T03:18:07.175Z,99.90
2019-02-04T03:20:45.137Z,99.90
2019-02-04T03:23:14.095Z,99.90
2019-02-04T03:25:43.009Z,99.90
2019-02-04T03:28:11.953Z,99.90
2019-02-04T03:30:40.961Z,99.90
2019-02-04T03:33:09.846Z,99.90
2019-02-04T03:35:38.682Z,99.90
2019-02-04T03:38:07.585Z,99.90
2019-02-04T03:40:36.569Z,99.90
2019-02-04T03:43:05.424Z,99.90
2019-02-04T03:45:34.369Z,99.90
2019-02-04T03:48:07.015Z,99.90
2019-02-04T03:50:33.715Z,99.90
2019-02-04T03:53:02.661Z,99.90
2019-02-04T03:55:31.560Z,99.90
2019-02-04T03:58:00.541Z,99.90
2019-02-04T04:00:34.598Z,99.90
2019-02-04T04:03:03.609Z,99.90
2019-02-04T04:05:32.502Z,99.90
2019-02-04T04:08:10.361Z,99.90
2019-02-04T04:10:39.832Z,99.90
2019-02-04T04:13:09.042Z,99.90
2019-02-04T04:15:38.232Z,99.90
2019-02-04T04:18:15.343Z,99.90
2019-02-04T04:20:38.282Z,99.90
2019-02-04T04:23:08.222Z,99.90
2019-02-04T04:25:37.212Z,99.90
2019-02-04T04:28:06.503Z,99.90
2019-02-04T04:30:35.831Z,99.90
2019-02-04T04:33:04.892Z,99.90
2019-02-04T04:35:34.131Z,99.90
2019-02-04T04:38:03.225Z,99.90
2019-02-04T04:40:32.352Z,99.90
2019-02-04T04:43:01.250Z,99.90
2019-02-04T04:45:30.490Z,99.90
2019-02-04T04:47:59.378Z,99.90
2019-02-04T04:50:28.248Z,99.90
2019-02-04T04:52:57.153Z,99.90
2019-02-04T04:55:28.428Z,99.90
2019-02-04T04:57:57.755Z,99.90
2019-02-04T05:00:31.762Z,99.90
2019-02-04T05:03:01.124Z,99.90
2019-02-04T05:05:30.562Z,99.90
2019-02-04T05:07:59.821Z,99.90
2019-02-04T05:10:28.994Z,99.90
2019-02-04T05:12:58.312Z,99.90
2019-02-04T05:15:28.771Z,99.90
2019-02-04T05:17:58.381Z,99.90
2019-02-04T05:20:27.451Z,99.90
2019-02-04T05:22:56.762Z,99.90
2019-02-04T05:25:26.053Z,99.90
2019-02-04T05:27:55.431Z,99.90
2019-02-04T05:30:25.934Z,99.90
2019-02-04T05:32:55.162Z,99.90
2019-02-04T05:35:24.333Z,99.90
2019-02-04T05:37:53.572Z,99.90
2019-02-04T05:40:22.891Z,99.90
2019-02-04T05:43:02.716Z,99.90
2019-02-04T05:45:31.608Z,99.90
2019-02-04T05:48:00.555Z,99.90
2019-02-04T05:50:29.428Z,99.90
2019-02-04T05:52:58.333Z,99.90
2019-02-04T05:55:27.269Z,99.90
2019-02-04T05:57:56.219Z,99.90
2019-02-04T06:00:37.443Z,99.90
2019-02-04T06:03:06.471Z,99.90
2019-02-04T06:05:35.478Z,99.90
2019-02-04T06:08:04.740Z,99.90
2019-02-04T06:10:33.727Z,99.90
2019-02-04T06:13:02.614Z,99.90
2019-02-04T06:15:31.546Z,99.90
2019-02-04T06:18:00.503Z,99.90
2019-02-04T06:20:29.464Z,99.90
2019-02-04T06:22:58.358Z,99.90
2019-02-04T06:25:27.388Z,99.90
2019-02-04T06:27:56.363Z,99.90
2019-02-04T06:30:25.311Z,99.90
2019-02-04T06:32:54.217Z,99.90
2019-02-04T06:35:23.177Z,99.90
2019-02-04T06:37:52.172Z,99.90
2019-02-04T06:40:21.105Z,99.90
2019-02-04T06:42:50.123Z,99.90
2019-02-04T06:45:19.462Z,99.90
2019-02-04T06:47:48.333Z,99.90
2019-02-04T06:50:18.982Z,99.90
2019-02-04T06:52:47.917Z,99.90
2019-02-04T06:55:22.393Z,99.90
2019-02-04T06:57:51.325Z,99.90
2019-02-04T07:00:20.448Z,99.90
2019-02-04T07:02:49.359Z,99.90
2019-02-04T07:05:18.552Z,99.90
2019-02-04T07:07:47.510Z,99.90
2019-02-04T07:10:21.841Z,99.90
2019-02-04T07:12:50.789Z,99.90
2019-02-04T07:15:19.780Z,99.90
2019-02-04T07:17:49.141Z,99.90
2019-02-04T07:20:21.181Z,99.90
2019-02-04T07:22:50.571Z,99.90
2019-02-04T07:25:21.051Z,99.90
2019-02-04T07:27:49.995Z,99.90
2019-02-04T07:30:20.919Z,99.90
2019-02-04T07:32:50.155Z,99.90
2019-02-04T07:35:20.497Z,99.90
2019-02-04T07:37:49.810Z,99.90
2019-02-04T07:40:23.633Z,99.90
2019-02-04T07:42:53.590Z,99.90
2019-02-04T07:45:22.601Z,99.90
2019-02-04T07:47:51.821Z,99.90
2019-02-04T07:50:20.680Z,99.90
2019-02-04T07:52:49.695Z,99.90
2019-02-04T07:55:18.551Z,99.90
2019-02-04T07:57:47.461Z,99.90
2019-02-04T08:00:19.027Z,99.90
2019-02-04T08:02:47.996Z,99.90
2019-02-04T08:05:23.049Z,99.90
2019-02-04T08:07:52.045Z,99.90
2019-02-04T08:10:20.976Z,99.90
2019-02-04T08:13:00.604Z,99.90
2019-02-04T08:15:31.869Z,99.90
2019-02-04T08:18:00.728Z,99.90
2019-02-04T08:20:29.647Z,99.90
2019-02-04T08:22:58.546Z,99.90
2019-02-04T08:25:27.479Z,99.90
2019-02-04T08:27:56.652Z,99.90
2019-02-04T08:30:33.651Z,99.90
2019-02-04T08:33:02.792Z,99.90
2019-02-04T08:35:32.273Z,99.90
2019-02-04T08:38:01.387Z,99.90
2019-02-04T08:40:30.577Z,99.90
2019-02-04T08:43:00.190Z,99.90
2019-02-04T08:45:29.110Z,99.90
2019-02-04T08:47:58.013Z,99.90
2019-02-04T08:50:28.508Z,99.90
2019-02-04T08:52:57.411Z,99.90
2019-02-04T08:55:26.285Z,99.90
2019-02-04T08:57:55.722Z,98.40
2019-02-04T09:00:28.241Z,99.10
2019-02-04T09:02:57.176Z,99.60
2019-02-04T09:05:26.241Z,99.90
2019-02-04T09:07:55.199Z,99.60
2019-02-04T09:10:31.929Z,99.90
2019-02-04T09:13:01.086Z,99.90
2019-02-04T09:15:30.295Z,99.90
2019-02-04T09:17:59.168Z,99.90
2019-02-04T09:20:28.121Z,99.90
2019-02-04T09:22:57.110Z,99.90
2019-02-04T09:25:27.260Z,99.90
2019-02-04T09:27:57.523Z,99.90
2019-02-04T09:30:28.329Z,99.90
2019-02-04T09:32:59.111Z,99.40
2019-02-04T09:35:28.272Z,99.90
2019-02-04T09:37:57.289Z,99.90
2019-02-04T09:40:39.951Z,99.90
2019-02-04T09:43:09.461Z,99.90
2019-02-04T09:45:38.581Z,99.90
2019-02-04T09:48:10.991Z,99.20
2019-02-04T09:50:45.422Z,99.50
2019-02-04T09:53:15.031Z,98.70
2019-02-04T09:55:44.531Z,97.70
2019-02-04T09:58:13.681Z,97.10
2019-02-04T10:00:42.911Z,98.40
2019-02-04T10:03:12.101Z,98.70
2019-02-04T10:05:41.331Z,99.40
2019-02-04T10:08:10.632Z,99.90
2019-02-04T10:10:39.834Z,99.90
2019-02-04T10:13:09.292Z,99.90
2019-02-04T10:15:41.396Z,99.90
2019-02-04T10:18:11.431Z,99.90
2019-02-04T10:20:40.906Z,99.90
2019-02-04T10:23:10.726Z,99.80
2019-02-04T10:25:42.559Z,99.90
2019-02-04T10:28:18.112Z,99.90
2019-02-04T10:30:47.787Z,99.90
2019-02-04T10:33:17.097Z,99.80
2019-02-04T10:35:46.102Z,99.90
2019-02-04T10:38:16.454Z,99.90
2019-02-04T10:40:45.742Z,99.40
2019-02-04T10:43:14.777Z,99.70
2019-02-04T10:45:43.814Z,98.30
2019-02-04T10:48:12.799Z,97.60
2019-02-04T10:50:46.906Z,98.50
2019-02-04T10:53:12.999Z,97.50
2019-02-04T10:55:42.010Z,97.10
2019-02-04T10:58:13.097Z,96.60
2019-02-04T11:00:42.722Z,97.20
2019-02-04T11:03:11.661Z,96.10
2019-02-04T11:05:42.246Z,94.80
2019-02-04T11:08:13.172Z,95.40
2019-02-04T11:10:42.648Z,95.70
2019-02-04T11:13:16.610Z,95.10
2019-02-04T11:15:48.517Z,95.30
2019-02-04T11:18:17.761Z,95.60
2019-02-04T11:20:57.917Z,94.60
2019-02-04T11:23:17.530Z,95.60
2019-02-04T11:25:46.526Z,95.40
2019-02-04T11:28:16.119Z,95.10
2019-02-04T11:30:50.725Z,95.70
2019-02-04T11:33:19.941Z,95.20
2019-02-04T11:35:48.980Z,94.90
2019-02-04T11:38:17.995Z,95.20
2019-02-04T11:40:47.097Z,94.00
2019-02-04T11:43:16.046Z,94.20
2019-02-04T11:45:45.119Z,92.80
2019-02-04T11:48:16.256Z,92.50
2019-02-04T11:50:45.284Z,91.80
2019-02-04T11:53:14.201Z,90.50
2019-02-04T11:55:43.111Z,88.70
2019-02-04T11:58:12.147Z,91.20
2019-02-04T12:00:41.129Z,90.70
2019-02-04T12:03:18.966Z,90.50
2019-02-04T12:05:48.562Z,90.90
2019-02-04T12:08:17.791Z,91.40
2019-02-04T12:10:50.102Z,91.10
2019-02-04T12:13:19.582Z,91.00
2019-02-04T12:15:48.932Z,91.20
2019-02-04T12:18:18.851Z,92.10
2019-02-04T12:20:48.781Z,92.30
2019-02-04T12:23:18.367Z,91.60
2019-02-04T12:25:47.702Z,92.80
2019-02-04T12:28:17.062Z,92.40
2019-02-04T12:30:46.282Z,92.50
2019-02-04T12:33:16.631Z,92.80
2019-02-04T12:35:46.429Z,92.00
2019-02-04T12:38:15.931Z,92.20
2019-02-04T12:40:45.041Z,91.60
2019-02-04T12:43:14.231Z,91.60
2019-02-04T12:45:44.763Z,91.30
2019-02-04T12:48:14.212Z,91.10
2019-02-04T12:50:44.564Z,91.10
2019-02-04T12:53:13.848Z,91.40
2019-02-04T12:55:42.709Z,91.60
2019-02-04T12:58:11.846Z,91.80
2019-02-04T13:00:40.923Z,91.40
2019-02-04T13:03:09.880Z,90.80
2019-02-04T13:05:44.082Z,91.50
2019-02-04T13:08:13.517Z,91.60
2019-02-04T13:10:42.623Z,91.50
2019-02-04T13:13:14.176Z,91.10
2019-02-04T13:15:43.068Z,91.80
2019-02-04T13:18:12.166Z,91.30
2019-02-04T13:20:41.527Z,92.20
2019-02-04T13:23:10.495Z,91.50
2019-02-04T13:25:39.368Z,91.50
2019-02-04T13:28:12.603Z,91.80
2019-02-04T13:30:41.425Z,91.20
2019-02-04T13:33:10.307Z,91.50
2019-02-04T13:35:39.497Z,91.60
2019-02-04T13:38:08.417Z,91.10
2019-02-04T13:40:37.349Z,91.20
2019-02-04T13:43:06.841Z,90.70
2019-02-04T13:45:35.757Z,90.30
2019-02-04T13:48:08.406Z,91.20
2019-02-04T13:50:36.227Z,91.30
2019-02-04T13:53:05.623Z,90.30
2019-02-04T13:55:36.267Z,90.10
2019-02-04T13:58:06.689Z,89.60
2019-02-04T14:00:36.868Z,88.90
2019-02-04T14:03:07.094Z,90.10
2019-02-04T14:05:36.100Z,89.90
2019-02-04T14:08:05.799Z,90.30
2019-02-04T14:10:42.608Z,90.30
2019-02-04T14:13:11.662Z,90.50
2019-02-04T14:15:41.016Z,90.70
2019-02-04T14:18:11.015Z,90.10
2019-02-04T14:20:39.869Z,89.20
2019-02-04T14:23:08.837Z,90.40
2019-02-04T14:25:38.091Z,90.70
2019-02-04T14:28:07.817Z,90.50
2019-02-04T14:30:38.833Z,90.40
2019-02-04T14:33:08.203Z,90.20
2019-02-04T14:35:37.732Z,90.40
2019-02-04T14:38:07.822Z,90.50
2019-02-04T14:40:37.421Z,91.00
2019-02-04T14:43:13.131Z,90.60
2019-02-04T14:46:07.932Z,91.20
2019-02-04T14:48:51.771Z,90.90
2019-02-04T14:51:41.831Z,91.50
2019-02-04T14:54:38.087Z,91.70
2019-02-04T14:57:09.841Z,91.70
2019-02-04T14:59:41.931Z,91.90
2019-02-04T15:02:28.902Z,91.80
2019-02-04T15:05:03.582Z,92.50
2019-02-04T15:07:52.102Z,92.50
2019-02-04T15:10:24.311Z,92.70
2019-02-04T15:13:18.202Z,92.60
2019-02-04T15:16:06.144Z,92.90
2019-02-04T15:18:46.816Z,93.00
2019-02-04T15:21:21.469Z,93.50
2019-02-04T15:24:08.974Z,93.60
2019-02-04T15:27:08.248Z,92.90
2019-02-04T15:29:46.845Z,92.90
2019-02-04T15:32:29.621Z,93.40
2019-02-04T15:35:10.161Z,93.70
2019-02-04T15:38:01.448Z,92.60
2019-02-04T15:40:36.030Z,92.60
2019-02-04T15:43:17.031Z,92.70
2019-02-04T15:46:05.642Z,93.80
2019-02-04T15:48:38.151Z,92.60
2019-02-04T15:51:22.493Z,92.20
2019-02-04T15:53:52.632Z,92.40
2019-02-04T15:56:22.042Z,92.90
2019-02-04T15:58:52.251Z,93.00
2019-02-04T16:01:21.972Z,93.00
2019-02-04T16:03:51.881Z,92.10
2019-02-04T16:06:21.427Z,92.90
2019-02-04T16:08:51.291Z,94.20
2019-02-04T16:11:20.544Z,95.30
2019-02-04T16:13:49.831Z,94.50
2019-02-04T16:16:19.151Z,93.60
2019-02-04T16:18:48.671Z,94.90
2019-02-04T16:21:18.001Z,94.40
2019-02-04T16:23:47.691Z,93.70
2019-02-04T16:26:16.731Z,93.60
2019-02-04T16:28:46.101Z,93.90
2019-02-04T16:31:15.442Z,94.30
2019-02-04T16:33:45.032Z,94.80
2019-02-04T16:36:14.462Z,95.20
2019-02-04T16:38:45.273Z,95.20
2019-02-04T16:41:14.662Z,95.40
2019-02-04T16:43:45.364Z,95.80
2019-02-04T16:46:14.211Z,96.00
2019-02-04T16:48:43.079Z,97.30
2019-02-04T16:51:12.087Z,97.90
2019-02-04T16:53:41.555Z,98.50
2019-02-04T16:56:11.024Z,98.80
2019-02-04T16:58:40.222Z,99.20
2019-02-04T17:01:09.652Z,99.70
2019-02-04T17:03:39.052Z,98.80
2019-02-04T17:06:09.222Z,99.50
2019-02-04T17:08:38.440Z,99.90
2019-02-04T17:11:08.302Z,99.90
2019-02-04T17:13:37.543Z,99.90
2019-02-04T17:16:06.926Z,99.90
2019-02-04T17:18:36.451Z,99.90
2019-02-04T17:21:06.221Z,99.90
2019-02-04T17:23:35.482Z,99.90
2019-02-04T17:26:05.063Z,99.90
2019-02-04T17:28:34.582Z,99.90
2019-02-04T17:31:03.882Z,99.90
2019-02-04T17:33:33.501Z,99.90
2019-02-04T17:36:03.202Z,99.90
2019-02-04T17:38:32.583Z,99.90
2019-02-04T17:41:02.143Z,99.90
2019-02-04T17:43:31.811Z,99.90
2019-02-04T17:46:01.172Z,99.90
2019-02-04T17:48:30.604Z,99.90
2019-02-04T17:51:00.414Z,99.90
2019-02-04T17:53:34.205Z,99.90
2019-02-04T17:56:01.333Z,99.90
2019-02-04T17:58:30.798Z,99.90
2019-02-04T18:01:00.543Z,99.90
2019-02-04T18:03:29.887Z,99.90
2019-02-04T18:05:59.593Z,99.90
2019-02-04T18:08:28.874Z,99.90
2019-02-04T18:11:00.162Z,99.90
2019-02-04T18:13:29.393Z,99.90
2019-02-04T18:15:58.733Z,99.90
2019-02-04T18:18:32.372Z,99.90
2019-02-04T18:21:02.118Z,99.90
2019-02-04T18:23:48.221Z,99.90
2019-02-04T18:26:14.943Z,99.90
2019-02-04T18:28:47.689Z,99.90
2019-02-04T18:31:15.623Z,99.90
2019-02-04T18:33:45.193Z,99.90
2019-02-04T18:36:14.493Z,99.90
2019-02-04T18:38:43.803Z,99.90
2019-02-04T18:41:13.343Z,99.90
2019-02-04T18:43:42.763Z,99.90
2019-02-04T18:46:12.212Z,99.90
2019-02-04T18:48:43.284Z,99.90
2019-02-04T18:51:12.684Z,99.90
2019-02-04T18:53:41.995Z,99.90
2019-02-04T18:56:12.173Z,99.90
2019-02-04T18:58:41.633Z,99.90
2019-02-04T19:01:10.993Z,99.90
2019-02-04T19:03:40.553Z,99.90
2019-02-04T19:06:10.293Z,99.90
2019-02-04T19:08:39.803Z,99.90
2019-02-04T19:11:09.663Z,99.90
2019-02-04T19:13:39.123Z,99.90
2019-02-04T19:16:08.523Z,99.90
2019-02-04T19:18:37.952Z,99.90
2019-02-04T19:21:08.372Z,99.90
2019-02-04T19:23:38.163Z,99.90
2019-02-04T19:26:07.533Z,99.90
2019-02-04T19:28:37.044Z,99.90
2019-02-04T19:31:09.772Z,99.90
2019-02-04T19:33:39.143Z,99.90
2019-02-04T19:36:08.843Z,99.90
2019-02-04T19:38:38.723Z,99.90
2019-02-04T19:41:08.323Z,99.90
2019-02-04T19:43:37.632Z,99.90
2019-02-04T19:46:07.462Z,99.90
2019-02-04T19:48:37.352Z,99.90
2019-02-04T19:51:06.893Z,99.90
2019-02-04T19:53:36.713Z,99.90
2019-02-04T19:56:06.193Z,99.90
2019-02-04T19:58:35.543Z,99.90
2019-02-04T20:01:05.103Z,99.90
2019-02-04T20:03:37.029Z,99.90
2019-02-04T20:06:06.473Z,99.90
2019-02-04T20:08:36.032Z,99.90
2019-02-04T20:11:05.945Z,99.90
2019-02-04T20:13:35.243Z,99.90
2019-02-04T20:16:04.826Z,99.90
2019-02-04T20:18:33.711Z,99.90
2019-02-04T20:21:02.722Z,99.90
2019-02-04T20:23:32.072Z,99.90
2019-02-04T20:26:01.149Z,99.90
2019-02-04T20:28:30.171Z,99.90
2019-02-04T20:30:59.068Z,99.90
2019-02-04T20:33:28.055Z,99.90
2019-02-04T20:35:57.015Z,99.90
2019-02-04T20:38:27.326Z,99.90
2019-02-04T20:40:56.561Z,99.90
2019-02-04T20:43:30.047Z,99.90
2019-02-04T20:45:59.059Z,99.90
2019-02-04T20:48:27.996Z,99.90
2019-02-04T20:50:59.963Z,99.90
2019-02-04T20:53:27.453Z,99.90
2019-02-04T20:55:56.491Z,99.90
2019-02-04T20:58:25.571Z,99.90
2019-02-04T21:00:56.075Z,99.90
2019-02-04T21:03:24.929Z,99.90
2019-02-04T21:05:54.075Z,99.90
2019-02-04T21:08:23.431Z,99.90
2019-02-04T21:10:52.378Z,99.90
2019-02-04T21:13:21.426Z,99.90
2019-02-04T21:15:50.317Z,99.90
2019-02-04T21:18:19.443Z,99.90
2019-02-04T21:20:48.315Z,99.90
2019-02-04T21:23:17.609Z,99.90
2019-02-04T21:25:46.659Z,99.90
2019-02-04T21:28:15.740Z,99.90
2019-02-04T21:30:46.197Z,99.90
2019-02-04T21:33:15.107Z,99.90
2019-02-04T21:35:44.251Z,99.90
2019-02-04T21:38:13.590Z,99.90
2019-02-04T21:40:42.610Z,99.90
2019-02-04T21:43:11.603Z,99.90
2019-02-04T21:45:40.554Z,99.90
2019-02-04T21:48:09.690Z,99.90
2019-02-04T21:50:38.595Z,99.90
2019-02-04T21:53:07.938Z,99.90
2019-02-04T21:55:36.975Z,99.90
2019-02-04T21:58:07.161Z,99.90
2019-02-04T22:00:38.243Z,99.90
2019-02-04T22:03:07.403Z,99.90
2019-02-04T22:05:36.499Z,99.90
2019-02-04T22:08:06.324Z,99.90
2019-02-04T22:10:35.193Z,99.90
2019-02-04T22:13:04.135Z,99.90
2019-02-04T22:15:33.539Z,99.90
2019-02-04T22:18:11.959Z,99.90
2019-02-04T22:20:43.831Z,99.90
2019-02-04T22:23:13.121Z,99.90
2019-02-04T22:25:42.941Z,99.90
2019-02-04T22:28:12.521Z,99.90
2019-02-04T22:30:41.922Z,99.90
2019-02-04T22:33:11.191Z,99.90
2019-02-04T22:35:40.324Z,99.90
2019-02-04T22:38:09.651Z,99.90
2019-02-04T22:40:38.942Z,99.90
2019-02-04T22:43:07.891Z,99.90
2019-02-04T22:45:37.261Z,99.90
2019-02-04T22:48:06.622Z,99.90
2019-02-04T22:50:35.702Z,99.90
2019-02-04T22:53:05.222Z,99.90
2019-02-04T22:55:34.651Z,99.90
2019-02-04T22:58:04.062Z,99.90
2019-02-04T23:00:42.948Z,99.90
2019-02-04T23:03:12.995Z,99.90
2019-02-04T23:05:41.890Z,99.90
2019-02-04T23:08:11.462Z,99.90
2019-02-04T23:10:40.631Z,99.90
2019-02-04T23:13:09.942Z,99.90
2019-02-04T23:15:39.391Z,99.90
2019-02-04T23:18:09.181Z,99.90
2019-02-04T23:20:38.451Z,99.90
2019-02-04T23:23:07.693Z,99.90
2019-02-04T23:25:43.531Z,99.90
2019-02-04T23:28:08.082Z,99.90
2019-02-04T23:30:37.481Z,99.90
2019-02-04T23:33:06.933Z,99.90
2019-02-04T23:35:36.351Z,99.90
2019-02-04T23:38:06.821Z,99.90
2019-02-04T23:40:36.632Z,99.90
2019-02-04T23:43:06.563Z,99.90
2019-02-04T23:45:35.631Z,99.90
2019-02-04T23:48:05.482Z,99.90
2019-02-04T23:50:34.652Z,99.90
2019-02-04T23:53:04.055Z,99.90
2019-02-04T23:55:33.292Z,99.90
2019-02-04T23:58:02.682Z,99.90
